sensor_id;sensor_type;location;lat;lon;timestamp;pressure;altitude;pressure_sealevel;temperature;humidity
77739;BME280;66904;59.926;30.404;2024-03-25T00:02:08;99734.84;;;4.86;65.64
77739;BME280;66904;59.926;30.404;2024-03-25T00:07:18;99733.16;;;4.85;65.75
77739;BME280;66904;59.926;30.404;2024-03-25T00:12:29;99731.81;;;4.92;65.91
77739;BME280;66904;59.926;30.404;2024-03-25T00:17:40;99733.50;;;4.93;65.84
77739;BME280;66904;59.926;30.404;2024-03-25T00:22:51;99730.72;;;4.82;65.75
77739;BME280;66904;59.926;30.404;2024-03-25T00:28:03;99740.16;;;4.84;65.80
77739;BME280;66904;59.926;30.404;2024-03-25T00:33:14;99743.25;;;4.64;65.84
77739;BME280;66904;59.926;30.404;2024-03-25T00:38:27;99746.59;;;4.53;65.90
77739;BME280;66904;59.926;30.404;2024-03-25T00:43:37;99750.53;;;4.46;66.26
77739;BME280;66904;59.926;30.404;2024-03-25T00:48:48;99751.47;;;4.45;66.38
77739;BME280;66904;59.926;30.404;2024-03-25T00:53:59;99756.44;;;4.50;66.47
77739;BME280;66904;59.926;30.404;2024-03-25T00:59:10;99757.91;;;4.54;66.49
77739;BME280;66904;59.926;30.404;2024-03-25T01:04:21;99759.34;;;4.45;66.62
77739;BME280;66904;59.926;30.404;2024-03-25T01:09:32;99755.22;;;4.41;66.87
77739;BME280;66904;59.926;30.404;2024-03-25T01:14:43;99752.53;;;4.43;66.89
77739;BME280;66904;59.926;30.404;2024-03-25T01:19:53;99758.88;;;4.39;66.74
77739;BME280;66904;59.926;30.404;2024-03-25T01:25:04;99754.69;;;4.36;66.87
77739;BME280;66904;59.926;30.404;2024-03-25T01:30:15;99751.88;;;4.39;67.30
77739;BME280;66904;59.926;30.404;2024-03-25T01:35:26;99754.41;;;4.41;66.84
77739;BME280;66904;59.926;30.404;2024-03-25T01:40:37;99750.94;;;4.40;67.03
77739;BME280;66904;59.926;30.404;2024-03-25T01:45:48;99756.28;;;4.39;66.80
77739;BME280;66904;59.926;30.404;2024-03-25T01:51:00;99752.91;;;4.37;67.09
77739;BME280;66904;59.926;30.404;2024-03-25T01:56:13;99752.72;;;4.40;67.28
77739;BME280;66904;59.926;30.404;2024-03-25T02:01:24;99759.53;;;4.42;67.00
77739;BME280;66904;59.926;30.404;2024-03-25T02:06:35;99764.69;;;4.44;67.01
77739;BME280;66904;59.926;30.404;2024-03-25T02:11:47;99759.00;;;4.37;66.92
77739;BME280;66904;59.926;30.404;2024-03-25T02:16:57;99768.22;;;4.43;67.56
77739;BME280;66904;59.926;30.404;2024-03-25T02:22:08;99764.16;;;4.51;67.23
77739;BME280;66904;59.926;30.404;2024-03-25T02:27:19;99769.31;;;4.53;67.41
77739;BME280;66904;59.926;30.404;2024-03-25T02:32:30;99775.19;;;4.56;67.17
77739;BME280;66904;59.926;30.404;2024-03-25T02:37:41;99773.91;;;4.49;67.02
77739;BME280;66904;59.926;30.404;2024-03-25T02:42:52;99767.59;;;4.39;67.53
77739;BME280;66904;59.926;30.404;2024-03-25T02:48:03;99781.16;;;4.32;67.77
77739;BME280;66904;59.926;30.404;2024-03-25T02:53:14;99780.63;;;4.27;67.52
77739;BME280;66904;59.926;30.404;2024-03-25T02:58:25;99781.47;;;4.27;67.54
77739;BME280;66904;59.926;30.404;2024-03-25T03:03:35;99771.91;;;4.26;67.68
77739;BME280;66904;59.926;30.404;2024-03-25T03:08:46;99783.22;;;4.41;67.91
77739;BME280;66904;59.926;30.404;2024-03-25T03:13:57;99784.28;;;4.51;67.60
77739;BME280;66904;59.926;30.404;2024-03-25T03:19:07;99784.09;;;4.54;67.80
77739;BME280;66904;59.926;30.404;2024-03-25T03:24:19;99780.75;;;4.64;67.63
77739;BME280;66904;59.926;30.404;2024-03-25T03:29:30;99785.16;;;4.64;67.76
77739;BME280;66904;59.926;30.404;2024-03-25T03:34:40;99793.50;;;4.71;68.02
77739;BME280;66904;59.926;30.404;2024-03-25T03:39:51;99795.31;;;4.56;68.03
77739;BME280;66904;59.926;30.404;2024-03-25T03:45:02;99808.16;;;4.46;68.05
77739;BME280;66904;59.926;30.404;2024-03-25T03:50:14;99817.78;;;4.46;68.41
77739;BME280;66904;59.926;30.404;2024-03-25T03:55:25;99816.84;;;4.47;68.12
77739;BME280;66904;59.926;30.404;2024-03-25T04:00:36;99821.56;;;4.54;68.61
77739;BME280;66904;59.926;30.404;2024-03-25T04:05:47;99826.69;;;4.70;68.06
77739;BME280;66904;59.926;30.404;2024-03-25T04:11:01;99825.53;;;4.74;68.09
77739;BME280;66904;59.926;30.404;2024-03-25T04:16:12;99845.13;;;4.68;68.38
77739;BME280;66904;59.926;30.404;2024-03-25T04:21:24;99843.53;;;4.66;68.38
77739;BME280;66904;59.926;30.404;2024-03-25T04:26:34;99841.00;;;4.64;68.29
77739;BME280;66904;59.926;30.404;2024-03-25T04:31:45;99850.56;;;4.65;68.38
77739;BME280;66904;59.926;30.404;2024-03-25T04:36:56;99858.41;;;4.65;68.15
77739;BME280;66904;59.926;30.404;2024-03-25T04:42:07;99862.28;;;4.60;68.21
77739;BME280;66904;59.926;30.404;2024-03-25T04:47:18;99868.84;;;4.53;68.22
77739;BME280;66904;59.926;30.404;2024-03-25T04:52:29;99870.81;;;4.49;68.10
77739;BME280;66904;59.926;30.404;2024-03-25T04:57:40;99876.31;;;4.45;68.43
77739;BME280;66904;59.926;30.404;2024-03-25T05:02:50;99880.72;;;4.44;68.43
77739;BME280;66904;59.926;30.404;2024-03-25T05:08:01;99879.13;;;4.42;68.33
77739;BME280;66904;59.926;30.404;2024-03-25T05:13:13;99889.41;;;4.45;68.61
77739;BME280;66904;59.926;30.404;2024-03-25T05:18:24;99897.91;;;4.48;68.53
77739;BME280;66904;59.926;30.404;2024-03-25T05:23:35;99897.72;;;4.51;68.58
77739;BME280;66904;59.926;30.404;2024-03-25T05:28:45;99898.75;;;4.63;68.70
77739;BME280;66904;59.926;30.404;2024-03-25T05:33:56;99894.88;;;4.68;68.35
77739;BME280;66904;59.926;30.404;2024-03-25T05:39:07;99907.31;;;4.79;67.97
77739;BME280;66904;59.926;30.404;2024-03-25T05:44:18;99921.72;;;4.86;68.53
77739;BME280;66904;59.926;30.404;2024-03-25T05:49:29;99922.84;;;4.82;68.74
77739;BME280;66904;59.926;30.404;2024-03-25T05:54:40;99933.50;;;4.79;68.25
77739;BME280;66904;59.926;30.404;2024-03-25T05:59:50;99938.75;;;4.79;68.56
77739;BME280;66904;59.926;30.404;2024-03-25T06:05:01;99949.97;;;4.81;68.53
77739;BME280;66904;59.926;30.404;2024-03-25T06:10:13;99952.41;;;4.84;68.89
77739;BME280;66904;59.926;30.404;2024-03-25T06:15:24;99955.66;;;4.88;68.32
77739;BME280;66904;59.926;30.404;2024-03-25T06:20:35;99965.41;;;4.86;68.32
77739;BME280;66904;59.926;30.404;2024-03-25T06:25:46;99966.72;;;4.93;68.00
77739;BME280;66904;59.926;30.404;2024-03-25T06:30:56;99978.38;;;5.01;68.47
77739;BME280;66904;59.926;30.404;2024-03-25T06:36:25;99981.97;;;5.00;68.39
77739;BME280;66904;59.926;30.404;2024-03-25T06:41:36;99989.63;;;5.03;68.47
77739;BME280;66904;59.926;30.404;2024-03-25T06:46:47;99997.75;;;5.13;68.38
77739;BME280;66904;59.926;30.404;2024-03-25T06:51:58;100003.25;;;5.22;67.65
77739;BME280;66904;59.926;30.404;2024-03-25T06:57:08;100008.00;;;5.30;67.93
77739;BME280;66904;59.926;30.404;2024-03-25T07:02:19;100016.41;;;5.35;68.04
77739;BME280;66904;59.926;30.404;2024-03-25T07:07:30;100021.38;;;5.40;67.34
77739;BME280;66904;59.926;30.404;2024-03-25T07:12:41;100020.72;;;5.36;67.35
77739;BME280;66904;59.926;30.404;2024-03-25T07:17:52;100027.84;;;5.34;67.21
77739;BME280;66904;59.926;30.404;2024-03-25T07:23:03;100039.56;;;5.29;67.62
77739;BME280;66904;59.926;30.404;2024-03-25T07:28:14;100054.75;;;5.24;67.37
77739;BME280;66904;59.926;30.404;2024-03-25T07:33:25;100046.59;;;5.28;67.57
77739;BME280;66904;59.926;30.404;2024-03-25T07:38:36;100053.78;;;5.39;67.18
77739;BME280;66904;59.926;30.404;2024-03-25T07:43:48;100051.81;;;5.42;66.97
77739;BME280;66904;59.926;30.404;2024-03-25T07:48:58;100073.56;;;5.57;67.03
77739;BME280;66904;59.926;30.404;2024-03-25T07:54:09;100066.91;;;5.65;67.23
77739;BME280;66904;59.926;30.404;2024-03-25T07:59:22;100076.06;;;5.72;66.34
77739;BME280;66904;59.926;30.404;2024-03-25T08:04:33;100074.31;;;5.73;66.33
77739;BME280;66904;59.926;30.404;2024-03-25T08:09:44;100084.22;;;5.68;65.85
77739;BME280;66904;59.926;30.404;2024-03-25T08:14:54;100099.13;;;5.67;66.36
77739;BME280;66904;59.926;30.404;2024-03-25T08:20:05;100103.66;;;5.65;65.92
77739;BME280;66904;59.926;30.404;2024-03-25T08:25:16;100109.53;;;5.69;66.39
77739;BME280;66904;59.926;30.404;2024-03-25T08:30:28;100113.47;;;5.76;66.28
77739;BME280;66904;59.926;30.404;2024-03-25T08:35:38;100119.44;;;5.78;66.45
77739;BME280;66904;59.926;30.404;2024-03-25T08:40:50;100131.81;;;5.90;65.67
77739;BME280;66904;59.926;30.404;2024-03-25T08:46:02;100126.00;;;5.85;65.26
77739;BME280;66904;59.926;30.404;2024-03-25T08:51:14;100127.72;;;5.86;66.34
77739;BME280;66904;59.926;30.404;2024-03-25T08:56:24;100132.25;;;5.97;66.09
77739;BME280;66904;59.926;30.404;2024-03-25T09:01:35;100137.22;;;6.01;65.51
77739;BME280;66904;59.926;30.404;2024-03-25T09:06:46;100155.50;;;6.03;66.28
77739;BME280;66904;59.926;30.404;2024-03-25T09:11:58;100153.81;;;6.02;65.76
77739;BME280;66904;59.926;30.404;2024-03-25T09:17:09;100151.72;;;6.07;65.14
77739;BME280;66904;59.926;30.404;2024-03-25T09:22:20;100157.13;;;6.18;65.91
77739;BME280;66904;59.926;30.404;2024-03-25T09:27:31;100165.94;;;6.17;65.93
77739;BME280;66904;59.926;30.404;2024-03-25T09:32:42;100169.97;;;6.22;65.13
77739;BME280;66904;59.926;30.404;2024-03-25T09:37:53;100169.44;;;6.30;65.37
77739;BME280;66904;59.926;30.404;2024-03-25T09:43:07;100182.94;;;6.38;64.85
77739;BME280;66904;59.926;30.404;2024-03-25T09:48:23;100172.06;;;6.30;65.01
77739;BME280;66904;59.926;30.404;2024-03-25T09:53:34;100179.88;;;6.32;64.71
77739;BME280;66904;59.926;30.404;2024-03-25T09:58:45;100189.31;;;6.34;65.10
77739;BME280;66904;59.926;30.404;2024-03-25T10:03:56;100180.41;;;6.37;65.33
77739;BME280;66904;59.926;30.404;2024-03-25T10:09:07;100180.78;;;6.57;65.41
77739;BME280;66904;59.926;30.404;2024-03-25T10:14:18;100182.41;;;6.72;65.23
77739;BME280;66904;59.926;30.404;2024-03-25T10:19:35;100180.84;;;6.83;64.81
77739;BME280;66904;59.926;30.404;2024-03-25T10:24:46;100192.00;;;6.99;64.35
77739;BME280;66904;59.926;30.404;2024-03-25T10:29:57;100187.69;;;7.23;65.01
77739;BME280;66904;59.926;30.404;2024-03-25T10:35:08;100188.94;;;7.30;64.08
77739;BME280;66904;59.926;30.404;2024-03-25T10:40:19;100196.72;;;7.44;64.28
77739;BME280;66904;59.926;30.404;2024-03-25T10:45:30;100215.25;;;7.55;63.51
77739;BME280;66904;59.926;30.404;2024-03-25T10:50:43;100216.19;;;7.54;63.36
77739;BME280;66904;59.926;30.404;2024-03-25T10:55:55;100221.03;;;7.48;63.24
77739;BME280;66904;59.926;30.404;2024-03-25T11:01:07;100227.88;;;7.50;63.53
77739;BME280;66904;59.926;30.404;2024-03-25T11:06:18;100231.66;;;7.46;62.58
77739;BME280;66904;59.926;30.404;2024-03-25T11:11:32;100227.97;;;7.36;62.72
77739;BME280;66904;59.926;30.404;2024-03-25T11:16:50;100234.72;;;7.27;62.20
77739;BME280;66904;59.926;30.404;2024-03-25T11:22:08;100239.78;;;7.18;61.75
77739;BME280;66904;59.926;30.404;2024-03-25T11:27:26;100248.06;;;6.99;62.16
77739;BME280;66904;59.926;30.404;2024-03-25T11:32:51;100252.47;;;6.99;62.42
77739;BME280;66904;59.926;30.404;2024-03-25T11:38:05;100252.47;;;6.99;62.37
77739;BME280;66904;59.926;30.404;2024-03-25T11:43:19;100260.66;;;6.94;62.25
77739;BME280;66904;59.926;30.404;2024-03-25T11:48:32;100258.16;;;7.05;63.09
77739;BME280;66904;59.926;30.404;2024-03-25T11:53:43;100260.47;;;7.22;62.25
77739;BME280;66904;59.926;30.404;2024-03-25T11:58:54;100268.06;;;7.27;62.18
77739;BME280;66904;59.926;30.404;2024-03-25T12:04:25;100278.09;;;7.22;62.76
77739;BME280;66904;59.926;30.404;2024-03-25T12:09:37;100273.13;;;7.17;62.84
77739;BME280;66904;59.926;30.404;2024-03-25T12:15:06;100287.13;;;7.18;62.63
77739;BME280;66904;59.926;30.404;2024-03-25T12:20:19;100292.88;;;7.10;62.85
77739;BME280;66904;59.926;30.404;2024-03-25T12:25:30;100305.72;;;7.02;62.08
77739;BME280;66904;59.926;30.404;2024-03-25T12:30:52;100315.22;;;6.91;61.62
77739;BME280;66904;59.926;30.404;2024-03-25T12:36:05;100321.16;;;6.67;61.74
77739;BME280;66904;59.926;30.404;2024-03-25T12:41:16;100324.25;;;6.60;61.76
77739;BME280;66904;59.926;30.404;2024-03-25T12:46:27;100326.44;;;6.53;62.82
77739;BME280;66904;59.926;30.404;2024-03-25T12:51:37;100337.25;;;6.49;62.20
77739;BME280;66904;59.926;30.404;2024-03-25T12:56:48;100342.13;;;6.41;62.21
77739;BME280;66904;59.926;30.404;2024-03-25T13:01:59;100348.25;;;6.41;61.53
77739;BME280;66904;59.926;30.404;2024-03-25T13:07:10;100339.63;;;6.25;61.91
77739;BME280;66904;59.926;30.404;2024-03-25T13:12:21;100345.88;;;6.37;62.33
77739;BME280;66904;59.926;30.404;2024-03-25T13:17:32;100341.41;;;6.39;62.47
77739;BME280;66904;59.926;30.404;2024-03-25T13:22:44;100336.88;;;6.41;62.53
77739;BME280;66904;59.926;30.404;2024-03-25T13:27:56;100355.84;;;6.46;62.35
77739;BME280;66904;59.926;30.404;2024-03-25T13:33:06;100349.38;;;6.37;61.51
77739;BME280;66904;59.926;30.404;2024-03-25T13:38:17;100360.06;;;6.34;62.43
77739;BME280;66904;59.926;30.404;2024-03-25T13:43:28;100350.69;;;6.30;61.69
77739;BME280;66904;59.926;30.404;2024-03-25T13:48:39;100352.50;;;6.30;62.06
77739;BME280;66904;59.926;30.404;2024-03-25T13:53:50;100357.09;;;6.26;61.73
77739;BME280;66904;59.926;30.404;2024-03-25T13:59:00;100374.97;;;6.34;62.25
77739;BME280;66904;59.926;30.404;2024-03-25T14:04:11;100372.00;;;6.26;62.31
77739;BME280;66904;59.926;30.404;2024-03-25T14:09:25;100370.56;;;6.20;61.93
77739;BME280;66904;59.926;30.404;2024-03-25T14:14:36;100391.22;;;6.12;61.92
77739;BME280;66904;59.926;30.404;2024-03-25T14:19:47;100386.16;;;6.09;61.43
77739;BME280;66904;59.926;30.404;2024-03-25T14:24:58;100392.72;;;6.02;61.91
77739;BME280;66904;59.926;30.404;2024-03-25T14:30:10;100405.59;;;6.06;61.67
77739;BME280;66904;59.926;30.404;2024-03-25T14:35:22;100390.28;;;5.99;61.64
77739;BME280;66904;59.926;30.404;2024-03-25T14:40:32;100390.28;;;5.99;61.88
77739;BME280;66904;59.926;30.404;2024-03-25T14:45:43;100401.34;;;6.04;61.84
77739;BME280;66904;59.926;30.404;2024-03-25T14:50:54;100413.06;;;5.98;62.34
77739;BME280;66904;59.926;30.404;2024-03-25T14:56:05;100417.72;;;5.93;61.73
77739;BME280;66904;59.926;30.404;2024-03-25T15:01:15;100415.59;;;5.86;62.37
77739;BME280;66904;59.926;30.404;2024-03-25T15:06:26;100425.13;;;5.87;62.65
77739;BME280;66904;59.926;30.404;2024-03-25T15:11:37;100437.66;;;5.82;62.03
77739;BME280;66904;59.926;30.404;2024-03-25T15:16:48;100457.06;;;5.79;62.52
77739;BME280;66904;59.926;30.404;2024-03-25T15:21:59;100453.84;;;5.74;62.04
77739;BME280;66904;59.926;30.404;2024-03-25T15:27:09;100448.28;;;5.64;61.84
77739;BME280;66904;59.926;30.404;2024-03-25T15:32:20;100455.84;;;5.55;62.26
77739;BME280;66904;59.926;30.404;2024-03-25T15:37:31;100462.22;;;5.51;61.54
77739;BME280;66904;59.926;30.404;2024-03-25T15:42:42;100461.88;;;5.41;61.23
77739;BME280;66904;59.926;30.404;2024-03-25T15:47:52;100471.81;;;5.36;61.21
77739;BME280;66904;59.926;30.404;2024-03-25T15:53:03;100472.41;;;5.26;60.87
77739;BME280;66904;59.926;30.404;2024-03-25T15:58:14;100472.41;;;5.26;60.93
77739;BME280;66904;59.926;30.404;2024-03-25T16:03:25;100484.28;;;5.17;60.97
77739;BME280;66904;59.926;30.404;2024-03-25T16:08:37;100489.66;;;5.14;60.54
77739;BME280;66904;59.926;30.404;2024-03-25T16:13:48;100494.75;;;5.17;60.98
77739;BME280;66904;59.926;30.404;2024-03-25T16:18:59;100495.50;;;5.19;60.84
77739;BME280;66904;59.926;30.404;2024-03-25T16:24:10;100500.41;;;5.25;61.20
77739;BME280;66904;59.926;30.404;2024-03-25T16:29:21;100496.50;;;5.32;60.73
77739;BME280;66904;59.926;30.404;2024-03-25T16:34:32;100492.19;;;5.31;60.59
77739;BME280;66904;59.926;30.404;2024-03-25T16:39:43;100509.53;;;5.34;60.27
77739;BME280;66904;59.926;30.404;2024-03-25T16:44:54;100516.28;;;5.38;60.81
77739;BME280;66904;59.926;30.404;2024-03-25T16:50:05;100524.34;;;5.35;60.58
77739;BME280;66904;59.926;30.404;2024-03-25T16:55:17;100525.38;;;5.32;61.17
77739;BME280;66904;59.926;30.404;2024-03-25T17:00:28;100531.34;;;5.34;60.53
77739;BME280;66904;59.926;30.404;2024-03-25T17:05:39;100528.91;;;5.31;61.04
77739;BME280;66904;59.926;30.404;2024-03-25T17:10:50;100531.81;;;5.27;61.03
77739;BME280;66904;59.926;30.404;2024-03-25T17:16:00;100541.28;;;5.29;60.54
77739;BME280;66904;59.926;30.404;2024-03-25T17:21:11;100529.66;;;5.17;60.47
77739;BME280;66904;59.926;30.404;2024-03-25T17:26:22;100527.50;;;5.10;61.25
77739;BME280;66904;59.926;30.404;2024-03-25T17:31:33;100528.97;;;4.98;60.96
77739;BME280;66904;59.926;30.404;2024-03-25T17:36:43;100547.09;;;5.03;61.49
77739;BME280;66904;59.926;30.404;2024-03-25T17:41:54;100552.00;;;5.09;61.32
77739;BME280;66904;59.926;30.404;2024-03-25T17:47:06;100546.25;;;5.18;61.18
77739;BME280;66904;59.926;30.404;2024-03-25T17:52:18;100548.81;;;5.19;61.59
77739;BME280;66904;59.926;30.404;2024-03-25T17:57:29;100560.13;;;5.20;61.32
77739;BME280;66904;59.926;30.404;2024-03-25T18:02:40;100567.06;;;5.21;61.00
77739;BME280;66904;59.926;30.404;2024-03-25T18:07:51;100574.25;;;5.17;61.14
77739;BME280;66904;59.926;30.404;2024-03-25T18:13:02;100573.41;;;5.17;61.07
77739;BME280;66904;59.926;30.404;2024-03-25T18:18:15;100574.00;;;5.22;60.98
77739;BME280;66904;59.926;30.404;2024-03-25T18:23:26;100572.75;;;5.13;60.85
77739;BME280;66904;59.926;30.404;2024-03-25T18:28:37;100580.84;;;5.09;60.85
77739;BME280;66904;59.926;30.404;2024-03-25T18:33:48;100587.16;;;5.05;61.39
77739;BME280;66904;59.926;30.404;2024-03-25T18:38:58;100590.56;;;5.07;61.48
77739;BME280;66904;59.926;30.404;2024-03-25T18:44:09;100599.03;;;5.12;61.50
77739;BME280;66904;59.926;30.404;2024-03-25T18:49:21;100600.91;;;5.10;61.52
77739;BME280;66904;59.926;30.404;2024-03-25T18:54:32;100602.56;;;5.11;61.19
77739;BME280;66904;59.926;30.404;2024-03-25T18:59:43;100602.50;;;5.12;60.97
77739;BME280;66904;59.926;30.404;2024-03-25T19:04:54;100609.34;;;5.15;61.21
77739;BME280;66904;59.926;30.404;2024-03-25T19:10:05;100610.88;;;5.19;60.66
77739;BME280;66904;59.926;30.404;2024-03-25T19:15:18;100618.41;;;5.25;61.26
77739;BME280;66904;59.926;30.404;2024-03-25T19:20:29;100623.66;;;5.25;60.95
77739;BME280;66904;59.926;30.404;2024-03-25T19:25:40;100631.63;;;5.24;61.31
77739;BME280;66904;59.926;30.404;2024-03-25T19:30:50;100632.03;;;5.16;61.05
77739;BME280;66904;59.926;30.404;2024-03-25T19:36:01;100640.22;;;5.10;61.56
77739;BME280;66904;59.926;30.404;2024-03-25T19:41:12;100646.28;;;5.10;61.28
77739;BME280;66904;59.926;30.404;2024-03-25T19:46:23;100650.53;;;5.13;61.70
77739;BME280;66904;59.926;30.404;2024-03-25T19:51:34;100641.88;;;5.11;61.62
77739;BME280;66904;59.926;30.404;2024-03-25T19:56:45;100659.94;;;5.17;61.58
77739;BME280;66904;59.926;30.404;2024-03-25T20:01:56;100660.00;;;5.15;61.50
77739;BME280;66904;59.926;30.404;2024-03-25T20:07:07;100667.25;;;5.10;61.28
77739;BME280;66904;59.926;30.404;2024-03-25T20:12:17;100662.19;;;5.07;61.43
77739;BME280;66904;59.926;30.404;2024-03-25T20:17:29;100649.22;;;5.04;62.72
77739;BME280;66904;59.926;30.404;2024-03-25T20:22:40;100645.13;;;5.16;62.35
77739;BME280;66904;59.926;30.404;2024-03-25T20:27:51;100649.13;;;5.23;61.40
77739;BME280;66904;59.926;30.404;2024-03-25T20:33:02;100657.06;;;5.21;61.45
77739;BME280;66904;59.926;30.404;2024-03-25T20:38:16;100654.84;;;5.14;61.60
77739;BME280;66904;59.926;30.404;2024-03-25T20:43:27;100670.34;;;5.18;61.35
77739;BME280;66904;59.926;30.404;2024-03-25T20:48:38;100670.09;;;5.23;61.68
77739;BME280;66904;59.926;30.404;2024-03-25T20:53:49;100678.31;;;5.33;61.84
77739;BME280;66904;59.926;30.404;2024-03-25T20:59:00;100679.00;;;5.36;61.88
77739;BME280;66904;59.926;30.404;2024-03-25T21:04:11;100684.25;;;5.36;61.72
77739;BME280;66904;59.926;30.404;2024-03-25T21:09:21;100675.28;;;5.40;62.03
77739;BME280;66904;59.926;30.404;2024-03-25T21:14:32;100679.75;;;5.38;62.02
77739;BME280;66904;59.926;30.404;2024-03-25T21:19:43;100685.25;;;5.34;61.01
77739;BME280;66904;59.926;30.404;2024-03-25T21:24:54;100696.06;;;5.28;61.47
77739;BME280;66904;59.926;30.404;2024-03-25T21:30:06;100695.53;;;5.21;61.25
77739;BME280;66904;59.926;30.404;2024-03-25T21:35:17;100688.53;;;5.21;61.71
77739;BME280;66904;59.926;30.404;2024-03-25T21:40:27;100675.69;;;5.17;61.21
77739;BME280;66904;59.926;30.404;2024-03-25T21:45:38;100688.63;;;5.20;61.48
77739;BME280;66904;59.926;30.404;2024-03-25T21:50:58;100716.13;;;5.29;61.48
77739;BME280;66904;59.926;30.404;2024-03-25T21:56:09;100709.50;;;5.21;61.94
77739;BME280;66904;59.926;30.404;2024-03-25T22:01:21;100716.31;;;5.08;61.35
77739;BME280;66904;59.926;30.404;2024-03-25T22:06:32;100734.13;;;5.02;61.60
77739;BME280;66904;59.926;30.404;2024-03-25T22:11:42;100738.09;;;4.93;61.67
77739;BME280;66904;59.926;30.404;2024-03-25T22:16:53;100743.22;;;4.95;62.41
77739;BME280;66904;59.926;30.404;2024-03-25T22:22:04;100746.53;;;4.98;61.79
77739;BME280;66904;59.926;30.404;2024-03-25T22:27:14;100750.03;;;4.99;61.90
77739;BME280;66904;59.926;30.404;2024-03-25T22:32:25;100749.94;;;5.00;62.33
77739;BME280;66904;59.926;30.404;2024-03-25T22:37:37;100750.50;;;5.07;62.24
77739;BME280;66904;59.926;30.404;2024-03-25T22:42:48;100760.81;;;5.10;62.21
77739;BME280;66904;59.926;30.404;2024-03-25T22:47:59;100744.28;;;5.08;62.01
77739;BME280;66904;59.926;30.404;2024-03-25T22:53:10;100751.63;;;5.01;61.85
77739;BME280;66904;59.926;30.404;2024-03-25T22:58:21;100754.09;;;4.87;62.11
77739;BME280;66904;59.926;30.404;2024-03-25T23:03:31;100765.88;;;4.79;62.04
77739;BME280;66904;59.926;30.404;2024-03-25T23:08:42;100765.28;;;4.74;62.38
77739;BME280;66904;59.926;30.404;2024-03-25T23:13:53;100757.34;;;4.75;61.86
77739;BME280;66904;59.926;30.404;2024-03-25T23:19:04;100761.41;;;4.81;62.03
77739;BME280;66904;59.926;30.404;2024-03-25T23:24:14;100764.97;;;4.80;62.21
77739;BME280;66904;59.926;30.404;2024-03-25T23:29:25;100775.81;;;4.72;62.12
77739;BME280;66904;59.926;30.404;2024-03-25T23:34:36;100770.03;;;4.65;62.42
77739;BME280;66904;59.926;30.404;2024-03-25T23:39:47;100777.34;;;4.59;61.94
77739;BME280;66904;59.926;30.404;2024-03-25T23:44:57;100763.00;;;4.49;62.02
77739;BME280;66904;59.926;30.404;2024-03-25T23:50:08;100780.78;;;4.42;62.33
77739;BME280;66904;59.926;30.404;2024-03-25T23:55:19;100790.69;;;4.36;61.87
